Time;durP1;ratioP1;P1;durP2;ratioP2;P2;SDS_P1;SDS_P2;PMS_P1;PMS_P2;Temp;Humidity;BMP_temperature;BMP_pressure;BME280_temperature;BME280_humidity;BME280_pressure;Samples;Min_cycle;Max_cycle;Signal;HPM_P1;HPM_P2
2021/07/24 00:02:13;;;;;;;15.55;9.50;;;25.60;56.30;;;;;;6177996;28;83246;-68
2021/07/24 00:05:14;;;;;;;14.85;9.63;;;25.60;56.40;;;;;;6180541;28;84192;-69
2021/07/24 00:08:14;;;;;;;19.17;9.57;;;25.60;56.10;;;;;;6179154;28;80374;-70
2021/07/24 00:11:15;;;;;;;17.65;9.45;;;25.50;56.20;;;;;;6179035;28;81694;-70
2021/07/24 00:14:16;;;;;;;18.17;10.10;;;25.50;56.30;;;;;;6180728;28;82303;-69
2021/07/24 00:17:16;;;;;;;20.27;10.07;;;25.50;56.20;;;;;;6176992;28;89775;-72
2021/07/24 00:20:17;;;;;;;18.85;9.75;;;25.50;56.50;;;;;;6169625;28;83302;-71
2021/07/24 00:23:17;;;;;;;18.92;9.27;;;25.50;56.50;;;;;;6170469;28;83631;-71
2021/07/24 00:26:18;;;;;;;16.75;10.38;;;25.50;56.30;;;;;;6164665;28;80395;-67
2021/07/24 00:29:18;;;;;;;18.00;10.40;;;25.50;56.60;;;;;;6166820;28;83013;-67
2021/07/24 00:32:19;;;;;;;18.92;10.50;;;25.40;56.60;;;;;;6178935;28;83069;-68
2021/07/24 00:35:19;;;;;;;18.75;9.93;;;25.40;56.40;;;;;;6177844;28;84078;-68
2021/07/24 00:38:20;;;;;;;15.77;9.65;;;25.40;56.20;;;;;;6179833;28;83129;-67
2021/07/24 00:41:20;;;;;;;15.05;10.20;;;25.40;56.30;;;;;;6167255;28;80813;-67
2021/07/24 00:44:21;;;;;;;17.92;11.45;;;25.40;56.40;;;;;;6166114;28;83174;-68
2021/07/24 00:47:21;;;;;;;17.40;10.77;;;25.40;56.50;;;;;;6179833;28;83966;-68
2021/07/24 00:50:24;;;;;;;15.15;10.70;;;25.30;56.50;;;;;;6175496;28;85319;-68
2021/07/24 00:53:33;;;;;;;19.10;11.40;;;25.30;56.30;;;;;;6176641;28;83445;-68
2021/07/24 00:56:34;;;;;;;18.15;11.45;;;25.30;56.40;;;;;;6177461;28;83289;-68
2021/07/24 00:59:35;;;;;;;16.83;11.55;;;25.30;56.20;;;;;;6171704;28;83423;-67
2021/07/24 01:02:36;;;;;;;16.33;11.32;;;25.20;56.30;;;;;;6167569;28;84322;-68
2021/07/24 01:05:36;;;;;;;19.52;12.57;;;25.20;56.20;;;;;;6172591;28;85624;-67
2021/07/24 01:08:37;;;;;;;21.52;11.55;;;25.10;56.40;;;;;;6165745;28;85394;-68
2021/07/24 01:11:40;;;;;;;23.88;12.23;;;25.10;56.30;;;;;;6170912;28;83894;-69
2021/07/24 01:14:40;;;;;;;20.30;12.63;;;25.10;56.90;;;;;;6165758;28;85280;-68
2021/07/24 01:17:41;;;;;;;21.85;12.18;;;25.10;56.40;;;;;;6178577;28;83000;-68
2021/07/24 01:20:42;;;;;;;21.77;12.68;;;25.10;56.30;;;;;;6176406;28;85080;-68
2021/07/24 01:23:43;;;;;;;21.88;13.18;;;25.10;56.50;;;;;;6175239;28;84111;-68
2021/07/24 01:26:44;;;;;;;24.05;14.23;;;25.10;56.40;;;;;;6170257;28;82939;-68
2021/07/24 01:29:44;;;;;;;24.80;15.07;;;25.00;56.50;;;;;;6175016;28;84349;-68
2021/07/24 01:32:52;;;;;;;30.15;13.75;;;25.00;56.50;;;;;;6178307;28;85833;-68
2021/07/24 01:35:53;;;;;;;25.15;14.32;;;25.00;56.80;;;;;;6178253;28;85555;-69
2021/07/24 01:38:54;;;;;;;26.75;14.18;;;25.00;56.60;;;;;;6177578;28;82966;-68
2021/07/24 01:41:55;;;;;;;22.35;14.23;;;25.00;56.40;;;;;;6178890;28;85540;-69
2021/07/24 01:44:57;;;;;;;24.63;14.52;;;25.00;56.20;;;;;;6181109;28;83136;-67
2021/07/24 01:47:58;;;;;;;21.55;13.90;;;24.90;56.30;;;;;;6181799;28;83297;-67
2021/07/24 01:54:17;;;;;;;21.33;12.90;;;24.90;56.40;;;;;;6169722;28;83476;-67
2021/07/24 01:57:18;;;;;;;24.00;13.57;;;24.90;56.30;;;;;;6174373;28;84677;-67
2021/07/24 02:00:29;;;;;;;24.45;14.18;;;24.90;56.10;;;;;;6174337;28;85565;-68
2021/07/24 02:03:44;;;;;;;21.05;13.10;;;24.90;56.10;;;;;;6173088;28;85698;-68
2021/07/24 02:07:15;;;;;;;20.05;13.20;;;24.90;56.10;;;;;;6178225;28;86147;-67
2021/07/24 02:10:45;;;;;;;23.27;13.25;;;24.80;56.10;;;;;;6173778;28;84377;-69
2021/07/24 02:13:47;;;;;;;23.88;13.45;;;24.80;56.20;;;;;;6176138;28;84192;-68
2021/07/24 02:16:48;;;;;;;21.58;12.80;;;24.80;56.30;;;;;;6172689;28;84751;-68
2021/07/24 02:19:53;;;;;;;19.13;12.00;;;24.80;56.30;;;;;;6179480;28;89560;-68
2021/07/24 02:22:54;;;;;;;17.88;11.63;;;24.80;56.30;;;;;;6171713;28;86754;-68
2021/07/24 02:25:55;;;;;;;16.23;11.40;;;24.90;56.30;;;;;;6190213;28;85808;-68
2021/07/24 02:28:55;;;;;;;22.48;10.98;;;24.90;56.10;;;;;;6177010;28;83294;-68
2021/07/24 02:31:56;;;;;;;17.85;10.50;;;25.00;56.10;;;;;;6182283;28;85830;-69
2021/07/24 02:34:58;;;;;;;19.48;11.05;;;25.00;56.00;;;;;;6173936;28;83858;-69
2021/07/24 02:37:58;;;;;;;16.63;10.32;;;25.10;56.20;;;;;;6172493;28;85858;-68
2021/07/24 02:40:59;;;;;;;17.77;11.90;;;25.10;56.00;;;;;;6176007;28;84791;-69
2021/07/24 02:44:00;;;;;;;16.85;10.00;;;25.10;55.90;;;;;;6168888;28;85662;-68
2021/07/24 02:47:01;;;;;;;17.90;10.07;;;25.10;56.30;;;;;;6175675;28;87001;-68
2021/07/24 02:50:02;;;;;;;17.23;10.32;;;25.10;56.30;;;;;;6164083;28;82974;-67
2021/07/24 02:53:02;;;;;;;14.90;10.30;;;25.10;56.00;;;;;;6179695;28;85836;-67
2021/07/24 02:56:05;;;;;;;15.50;9.98;;;25.10;56.00;;;;;;6175718;28;85546;-67
2021/07/24 02:59:09;;;;;;;17.75;10.13;;;25.10;56.30;;;;;;6175238;28;84273;-67
2021/07/24 03:02:10;;;;;;;16.95;10.30;;;25.10;55.90;;;;;;6175612;28;84053;-67
2021/07/24 03:05:11;;;;;;;16.13;10.82;;;25.20;55.70;;;;;;6165474;28;83012;-68
2021/07/24 03:08:11;;;;;;;16.35;9.82;;;25.10;55.40;;;;;;6175626;28;84405;-69
2021/07/24 03:11:12;;;;;;;16.27;9.85;;;25.10;55.30;;;;;;6167225;28;81641;-68
2021/07/24 03:14:12;;;;;;;15.35;9.15;;;25.10;55.20;;;;;;6178066;28;80699;-68
2021/07/24 03:17:13;;;;;;;17.20;9.93;;;25.20;55.30;;;;;;6181451;28;80440;-68
2021/07/24 03:20:13;;;;;;;13.45;8.80;;;25.20;55.70;;;;;;6181852;28;80625;-70
2021/07/24 03:23:14;;;;;;;16.90;9.95;;;25.20;55.50;;;;;;6175541;28;80741;-70
2021/07/24 03:26:14;;;;;;;14.35;9.95;;;25.20;55.20;;;;;;6181807;28;80823;-69
2021/07/24 03:29:15;;;;;;;25.38;10.00;;;25.20;55.10;;;;;;6183207;28;80617;-69
2021/07/24 03:32:15;;;;;;;21.30;10.65;;;25.20;55.10;;;;;;6166236;28;84135;-68
2021/07/24 03:35:16;;;;;;;18.25;10.45;;;25.10;55.20;;;;;;6170867;28;83307;-68
2021/07/24 03:38:16;;;;;;;15.70;10.27;;;25.10;55.20;;;;;;6176958;28;84603;-71
2021/07/24 03:41:17;;;;;;;18.58;9.95;;;25.10;55.50;;;;;;6171945;28;83174;-71
2021/07/24 03:44:17;;;;;;;15.45;10.55;;;25.10;55.40;;;;;;6173343;28;83517;-70
2021/07/24 03:47:18;;;;;;;19.70;12.20;;;25.10;55.60;;;;;;6178195;28;82935;-69
2021/07/24 03:50:18;;;;;;;18.45;10.70;;;25.00;55.50;;;;;;6171482;28;83458;-69
2021/07/24 03:53:19;;;;;;;17.10;10.65;;;25.10;55.60;;;;;;6174557;28;83134;-69
2021/07/24 03:56:19;;;;;;;15.40;10.27;;;25.10;55.60;;;;;;6175840;28;83992;-68
2021/07/24 03:59:20;;;;;;;20.35;10.50;;;25.10;55.40;;;;;;6187546;28;83023;-68
2021/07/24 04:02:23;;;;;;;17.10;9.75;;;25.10;55.40;;;;;;6169450;28;83182;-68
2021/07/24 04:05:23;;;;;;;14.35;10.20;;;25.10;55.30;;;;;;6174212;28;82734;-69
2021/07/24 04:08:24;;;;;;;16.38;9.98;;;25.20;55.50;;;;;;6177058;28;83288;-69
2021/07/24 04:11:24;;;;;;;15.98;9.65;;;25.20;55.50;;;;;;6177258;28;83716;-65
2021/07/24 04:14:25;;;;;;;18.38;9.52;;;25.20;55.50;;;;;;6181941;28;84165;-67
2021/07/24 04:17:26;;;;;;;16.55;9.77;;;25.20;56.10;;;;;;6174395;28;80472;-70
2021/07/24 04:20:27;;;;;;;15.60;9.75;;;25.20;55.60;;;;;;6175928;28;80596;-69
2021/07/24 04:23:27;;;;;;;15.63;9.52;;;25.20;56.60;;;;;;6181372;28;80670;-69
2021/07/24 04:26:27;;;;;;;18.55;10.70;;;25.30;56.00;;;;;;6173588;28;80403;-71
2021/07/24 04:29:28;;;;;;;15.73;10.93;;;25.30;56.90;;;;;;6167630;28;83927;-72
2021/07/24 04:32:29;;;;;;;26.27;12.85;;;25.30;57.10;;;;;;6175842;28;84845;-72
2021/07/24 04:35:29;;;;;;;21.35;11.68;;;25.30;57.60;;;;;;6178034;28;83818;-72
2021/07/24 04:38:30;;;;;;;23.13;11.90;;;25.30;57.60;;;;;;6174581;28;83439;-73
2021/07/24 04:41:30;;;;;;;18.55;12.05;;;25.30;57.50;;;;;;6177593;28;83575;-72
2021/07/24 04:44:30;;;;;;;21.23;12.82;;;25.30;57.60;;;;;;6178085;28;83197;-69
2021/07/24 04:47:31;;;;;;;23.92;12.82;;;25.30;57.40;;;;;;6174852;28;84463;-71
2021/07/24 04:50:31;;;;;;;20.88;13.38;;;25.40;57.70;;;;;;6172287;28;84334;-70
2021/07/24 04:53:32;;;;;;;19.45;12.68;;;25.40;57.60;;;;;;6167884;28;82964;-73
2021/07/24 04:56:32;;;;;;;23.67;14.07;;;25.40;57.80;;;;;;6176492;28;84043;-71
2021/07/24 04:59:33;;;;;;;85.88;45.30;;;25.40;57.10;;;;;;6170874;28;83399;-72
2021/07/24 05:02:33;;;;;;;219.30;87.05;;;25.40;57.30;;;;;;6172931;28;83296;-71
2021/07/24 05:05:35;;;;;;;508.23;175.48;;;25.40;57.00;;;;;;6178485;28;85639;-71
2021/07/24 05:08:36;;;;;;;743.05;292.77;;;25.40;57.70;;;;;;6167532;28;85342;-71
2021/07/24 05:11:36;;;;;;;579.28;225.27;;;25.40;57.90;;;;;;6174120;28;85581;-71
2021/07/24 05:14:36;;;;;;;542.08;190.45;;;25.40;58.10;;;;;;6168791;28;85222;-71
2021/07/24 05:17:37;;;;;;;320.77;114.72;;;25.40;57.50;;;;;;6177547;28;86355;-71
2021/07/24 05:20:37;;;;;;;378.08;133.52;;;25.50;57.40;;;;;;6167516;28;85839;-70
2021/07/24 05:23:38;;;;;;;243.10;89.00;;;25.50;57.40;;;;;;6177894;28;88262;-71
2021/07/24 05:26:38;;;;;;;221.93;82.78;;;25.50;57.20;;;;;;6180676;28;84258;-71
2021/07/24 05:29:39;;;;;;;147.77;56.17;;;25.50;57.00;;;;;;6169406;28;83899;-73
2021/07/24 05:32:41;;;;;;;127.95;49.22;;;25.50;57.00;;;;;;6173237;28;83627;-72
2021/07/24 05:35:41;;;;;;;110.35;40.17;;;25.60;56.40;;;;;;6172161;28;88959;-72
2021/07/24 05:38:42;;;;;;;100.00;38.05;;;25.50;56.90;;;;;;6175299;28;83538;-71
2021/07/24 05:41:42;;;;;;;72.20;31.20;;;25.60;56.80;;;;;;6177417;28;84654;-70
2021/07/24 05:44:43;;;;;;;68.60;28.33;;;25.60;56.90;;;;;;6164549;28;82764;-70
2021/07/24 05:47:43;;;;;;;54.45;22.50;;;25.60;56.60;;;;;;6174421;28;83490;-69
2021/07/24 05:50:44;;;;;;;55.70;21.80;;;25.60;56.40;;;;;;6178893;28;84881;-70
2021/07/24 05:53:44;;;;;;;44.08;19.77;;;25.60;56.70;;;;;;6175025;28;83354;-70
2021/07/24 05:56:45;;;;;;;37.13;17.90;;;25.60;56.50;;;;;;6170657;28;82734;-71
2021/07/24 05:59:45;;;;;;;38.80;17.85;;;25.60;56.90;;;;;;6166481;28;84224;-69
2021/07/24 06:02:46;;;;;;;38.13;19.80;;;25.60;57.10;;;;;;6178604;28;84034;-71
2021/07/24 06:05:46;;;;;;;38.30;17.67;;;25.70;57.20;;;;;;6167696;28;89177;-72
2021/07/24 06:08:47;;;;;;;44.10;17.50;;;25.70;57.30;;;;;;6160855;28;83038;-72
2021/07/24 06:11:47;;;;;;;32.63;16.98;;;25.70;57.70;;;;;;6181557;28;83509;-71
2021/07/24 06:14:48;;;;;;;33.55;17.70;;;25.70;57.50;;;;;;6182102;28;83122;-69
2021/07/24 06:17:48;;;;;;;29.88;16.38;;;25.70;57.60;;;;;;6174424;28;83857;-70
2021/07/24 06:20:49;;;;;;;33.63;16.52;;;25.70;57.70;;;;;;6182987;28;83203;-68
2021/07/24 06:23:49;;;;;;;30.08;15.68;;;25.70;58.50;;;;;;6176590;28;83157;-68
2021/07/24 06:26:50;;;;;;;26.95;14.63;;;25.70;58.20;;;;;;6166599;28;84068;-69
2021/07/24 06:29:50;;;;;;;29.35;14.82;;;25.70;58.00;;;;;;6168841;28;86168;-71
2021/07/24 06:32:51;;;;;;;26.27;14.55;;;25.70;58.00;;;;;;6170303;28;83120;-68
2021/07/24 06:35:51;;;;;;;24.67;13.88;;;25.70;58.20;;;;;;6173504;28;83116;-69
2021/07/24 06:38:52;;;;;;;28.88;14.32;;;25.80;57.80;;;;;;6175044;28;83917;-68
2021/07/24 06:41:52;;;;;;;25.60;13.75;;;25.80;58.20;;;;;;6180425;28;83098;-68
2021/07/24 06:44:53;;;;;;;26.88;13.40;;;25.80;58.00;;;;;;6179633;28;83340;-68
2021/07/24 06:47:53;;;;;;;22.08;13.50;;;25.80;58.40;;;;;;6176643;28;83687;-73
2021/07/24 06:50:54;;;;;;;24.13;13.25;;;25.80;58.60;;;;;;6165955;28;83140;-67
2021/07/24 06:53:54;;;;;;;26.92;14.50;;;25.70;58.50;;;;;;6163016;28;83418;-65
2021/07/24 06:56:55;;;;;;;22.67;13.75;;;25.80;59.10;;;;;;6162520;28;83387;-68
2021/07/24 06:59:55;;;;;;;22.73;13.07;;;25.80;58.40;;;;;;6162428;28;83728;-67
2021/07/24 07:02:56;;;;;;;23.30;13.02;;;25.80;58.20;;;;;;6163097;28;84190;-67
2021/07/24 07:05:56;;;;;;;23.65;13.35;;;25.80;58.70;;;;;;6164188;28;83009;-66
2021/07/24 07:08:57;;;;;;;22.55;13.52;;;25.80;58.60;;;;;;6168232;28;83829;-66
2021/07/24 07:11:57;;;;;;;22.95;14.13;;;25.80;58.40;;;;;;6172379;28;84068;-66
2021/07/24 07:15:02;;;;;;;33.35;14.73;;;25.80;58.60;;;;;;6176264;28;86436;-67
2021/07/24 07:18:02;;;;;;;24.80;14.05;;;25.80;58.40;;;;;;6174423;28;85772;-68
2021/07/24 07:21:03;;;;;;;23.67;13.00;;;25.90;58.90;;;;;;6168114;28;84014;-68
2021/07/24 07:24:03;;;;;;;25.42;13.77;;;25.90;58.90;;;;;;6195061;28;85189;-68
2021/07/24 07:27:04;;;;;;;33.45;14.95;;;25.90;58.60;;;;;;6169109;28;84242;-65
2021/07/24 07:30:04;;;;;;;25.73;14.57;;;25.90;58.60;;;;;;6174553;28;83379;-65
2021/07/24 07:33:05;;;;;;;28.15;15.07;;;25.90;58.60;;;;;;6183215;28;83133;-65
2021/07/24 07:36:05;;;;;;;29.30;15.30;;;25.90;58.90;;;;;;6169534;28;83921;-66
2021/07/24 07:39:06;;;;;;;25.80;14.38;;;25.90;58.50;;;;;;6180157;28;83037;-65
2021/07/24 07:42:06;;;;;;;27.77;14.85;;;25.90;58.50;;;;;;6173305;28;83238;-69
2021/07/24 07:45:07;;;;;;;29.52;16.17;;;25.90;58.60;;;;;;6171636;28;83963;-69
2021/07/24 07:48:07;;;;;;;33.25;19.75;;;25.90;58.70;;;;;;6173313;28;83354;-66
2021/07/24 07:51:08;;;;;;;27.98;17.50;;;25.90;59.00;;;;;;6169358;28;82814;-68
2021/07/24 07:54:08;;;;;;;26.40;16.98;;;25.90;58.80;;;;;;6174240;28;84283;-68
2021/07/24 07:57:09;;;;;;;30.92;17.17;;;25.90;58.60;;;;;;6177262;28;83609;-69
2021/07/24 08:00:09;;;;;;;31.40;17.42;;;26.00;58.60;;;;;;6179504;28;83121;-70
2021/07/24 08:03:13;;;;;;;25.73;15.10;;;26.00;58.70;;;;;;6174986;28;83248;-70
2021/07/24 08:06:13;;;;;;;24.98;15.18;;;26.00;58.90;;;;;;6169586;28;82963;-68
2021/07/24 08:09:14;;;;;;;22.33;15.00;;;26.00;58.70;;;;;;6178017;28;83620;-70
2021/07/24 08:12:14;;;;;;;27.83;14.90;;;26.00;58.60;;;;;;6176043;28;83697;-68
2021/07/24 08:15:15;;;;;;;23.92;14.90;;;26.00;58.60;;;;;;6173011;28;83692;-69
2021/07/24 08:18:15;;;;;;;21.67;13.48;;;26.00;58.60;;;;;;6171216;28;84757;-68
2021/07/24 08:21:16;;;;;;;23.50;14.18;;;26.00;58.70;;;;;;6177733;28;83003;-68
2021/07/24 08:24:16;;;;;;;23.13;13.38;;;26.00;58.70;;;;;;6173842;28;83497;-68
2021/07/24 08:27:16;;;;;;;23.63;13.70;;;26.00;59.00;;;;;;6176508;28;84172;-69
2021/07/24 08:30:17;;;;;;;21.15;13.85;;;26.00;58.90;;;;;;6168934;28;82882;-69
2021/07/24 08:33:18;;;;;;;21.10;12.57;;;26.10;58.60;;;;;;6176826;28;83204;-69
2021/07/24 08:36:18;;;;;;;15.48;11.38;;;26.10;58.50;;;;;;6175345;28;83074;-68
2021/07/24 08:39:19;;;;;;;18.48;12.40;;;26.10;58.40;;;;;;6169617;28;83305;-68
2021/07/24 08:42:19;;;;;;;19.42;11.85;;;26.10;58.20;;;;;;6178551;28;83246;-69
2021/07/24 08:45:20;;;;;;;18.90;11.38;;;26.10;58.10;;;;;;6181977;28;83002;-67
2021/07/24 08:48:20;;;;;;;21.25;11.27;;;26.10;58.20;;;;;;6179055;28;84291;-67
2021/07/24 08:51:21;;;;;;;17.83;10.52;;;26.10;58.00;;;;;;6174264;28;84365;-68
2021/07/24 08:54:21;;;;;;;19.48;10.25;;;26.10;57.90;;;;;;6181671;28;83172;-67
2021/07/24 08:57:24;;;;;;;15.98;10.13;;;26.10;57.80;;;;;;6181263;28;84129;-67
2021/07/24 09:00:26;;;;;;;18.90;10.85;;;26.10;57.80;;;;;;6182573;28;83707;-67
2021/07/24 09:03:27;;;;;;;16.05;9.60;;;26.10;57.90;;;;;;6178567;28;83930;-67
2021/07/24 09:06:27;;;;;;;20.77;11.07;;;26.10;57.80;;;;;;6184566;28;83324;-67
2021/07/24 09:09:28;;;;;;;11.05;9.27;;;26.10;58.00;;;;;;6170377;28;83771;-68
2021/07/24 09:12:28;;;;;;;14.13;10.13;;;26.10;57.10;;;;;;6184303;28;83004;-69
2021/07/24 09:15:29;;;;;;;18.63;10.75;;;26.10;56.70;;;;;;6179754;28;83265;-67
2021/07/24 09:18:30;;;;;;;19.40;11.75;;;26.10;56.50;;;;;;6166994;28;82825;-66
2021/07/24 09:21:30;;;;;;;15.85;10.52;;;26.10;57.40;;;;;;6173403;28;83247;-66
2021/07/24 09:24:31;;;;;;;15.68;10.88;;;26.10;57.50;;;;;;6171531;28;83209;-67
2021/07/24 09:27:31;;;;;;;17.48;11.10;;;26.10;57.60;;;;;;6180539;28;83276;-65
2021/07/24 09:30:33;;;;;;;20.88;11.00;;;26.10;58.00;;;;;;6179615;28;83026;-66
2021/07/24 09:33:34;;;;;;;20.33;10.65;;;26.10;57.80;;;;;;6182058;28;83319;-65
2021/07/24 09:36:34;;;;;;;17.65;11.98;;;26.10;57.60;;;;;;6177441;28;83179;-66
2021/07/24 09:39:35;;;;;;;17.45;11.82;;;26.10;59.60;;;;;;6175402;28;83220;-65
2021/07/24 09:42:35;;;;;;;16.05;10.10;;;26.20;59.70;;;;;;6170331;28;83133;-66
2021/07/24 09:45:36;;;;;;;16.80;12.13;;;26.20;59.20;;;;;;6171623;28;83180;-66
2021/07/24 09:48:36;;;;;;;19.05;13.88;;;26.30;63.20;;;;;;6179307;28;83464;-67
2021/07/24 09:51:37;;;;;;;18.73;12.85;;;26.40;66.00;;;;;;6181421;28;83439;-67
2021/07/24 09:54:37;;;;;;;17.38;11.43;;;26.40;68.80;;;;;;6175088;28;83161;-66
2021/07/24 09:57:38;;;;;;;18.55;13.88;;;26.40;62.50;;;;;;6181704;28;82996;-66
2021/07/24 10:00:38;;;;;;;18.40;14.38;;;26.40;69.00;;;;;;6169555;28;83459;-66
2021/07/24 10:03:39;;;;;;;20.05;15.00;;;26.50;69.80;;;;;;6177089;28;83122;-67
2021/07/24 10:06:39;;;;;;;18.95;13.85;;;26.60;70.40;;;;;;6176642;28;84269;-66
2021/07/24 10:09:40;;;;;;;20.13;14.95;;;26.60;67.60;;;;;;6174462;28;82804;-67
2021/07/24 10:12:40;;;;;;;22.42;14.68;;;26.60;68.70;;;;;;6173104;28;83085;-64
2021/07/24 10:15:41;;;;;;;16.63;12.25;;;26.60;67.60;;;;;;6167338;28;83431;-68
2021/07/24 10:18:41;;;;;;;19.25;12.60;;;26.50;64.90;;;;;;6165751;28;84543;-68
2021/07/24 10:21:42;;;;;;;15.50;11.13;;;26.50;64.80;;;;;;6172802;28;83126;-67
2021/07/24 10:24:42;;;;;;;17.00;11.68;;;26.50;63.70;;;;;;6180696;28;83079;-65
2021/07/24 10:27:43;;;;;;;14.15;9.98;;;26.50;61.00;;;;;;6173987;28;82994;-66
2021/07/24 10:30:43;;;;;;;14.30;10.05;;;26.50;58.80;;;;;;6171437;28;85065;-67
2021/07/24 10:33:44;;;;;;;13.27;9.52;;;26.50;59.70;;;;;;6177072;28;85543;-68
2021/07/24 10:36:44;;;;;;;14.05;9.77;;;26.60;57.80;;;;;;6182180;28;82293;-66
2021/07/24 10:39:45;;;;;;;13.05;9.05;;;26.60;59.10;;;;;;6179885;28;81584;-66
2021/07/24 10:42:47;;;;;;;12.15;9.07;;;26.60;58.20;;;;;;6172510;28;80398;-66
2021/07/24 10:45:48;;;;;;;10.82;8.80;;;26.60;59.10;;;;;;6179823;28;80318;-64
2021/07/24 10:48:48;;;;;;;12.82;9.50;;;26.60;58.70;;;;;;6176260;28;81020;-67
2021/07/24 10:51:49;;;;;;;12.07;8.95;;;26.60;57.90;;;;;;6176120;28;83711;-65
2021/07/24 10:54:49;;;;;;;20.58;10.23;;;26.50;57.20;;;;;;6175544;28;80747;-65
2021/07/24 10:57:53;;;;;;;10.40;8.68;;;26.60;56.90;;;;;;6171791;28;84541;-68
2021/07/24 11:00:54;;;;;;;16.30;9.48;;;26.60;56.40;;;;;;6180372;28;82890;-67
2021/07/24 11:03:55;;;;;;;11.15;8.27;;;26.70;53.70;;;;;;6174404;28;80585;-66
2021/07/24 11:06:56;;;;;;;14.90;8.70;;;26.70;54.40;;;;;;6177593;28;81502;-66
2021/07/24 11:09:56;;;;;;;13.90;9.20;;;26.70;54.40;;;;;;6178694;28;81690;-66
2021/07/24 11:12:57;;;;;;;12.90;8.95;;;26.70;55.70;;;;;;6174161;28;80960;-68
2021/07/24 11:15:57;;;;;;;14.45;9.20;;;26.70;55.50;;;;;;6180798;28;80509;-67
2021/07/24 11:18:58;;;;;;;13.18;9.43;;;26.70;55.30;;;;;;6179183;28;80194;-66
2021/07/24 11:21:58;;;;;;;14.50;9.40;;;26.70;55.10;;;;;;6182020;28;81187;-66
2021/07/24 11:24:59;;;;;;;12.50;9.13;;;26.70;54.30;;;;;;6168037;28;81451;-65
2021/07/24 11:28:00;;;;;;;12.32;9.15;;;26.70;53.10;;;;;;6170283;28;80782;-66
2021/07/24 11:31:05;;;;;;;16.33;9.02;;;26.70;53.80;;;;;;6181840;28;80797;-66
2021/07/24 11:34:05;;;;;;;12.30;8.85;;;26.70;52.60;;;;;;6182398;28;81102;-66
2021/07/24 11:37:06;;;;;;;12.10;8.98;;;26.70;53.10;;;;;;6177061;28;80262;-67
2021/07/24 11:40:06;;;;;;;13.50;10.05;;;26.70;53.20;;;;;;6175000;28;80445;-67
2021/07/24 11:43:07;;;;;;;14.80;9.77;;;26.70;53.50;;;;;;6178641;28;85882;-67
2021/07/24 11:46:07;;;;;;;12.63;9.65;;;26.70;53.50;;;;;;6174674;28;83064;-68
2021/07/24 11:49:08;;;;;;;16.13;10.32;;;26.70;53.20;;;;;;6169467;28;80781;-67
2021/07/24 11:52:09;;;;;;;18.90;11.02;;;26.70;53.10;;;;;;6170161;28;83873;-67
2021/07/24 11:55:09;;;;;;;14.00;9.68;;;26.60;52.80;;;;;;6175041;28;83195;-68
2021/07/24 11:58:10;;;;;;;12.50;9.75;;;26.70;51.70;;;;;;6174824;28;83666;-67
2021/07/24 12:01:10;;;;;;;13.50;9.52;;;26.70;52.70;;;;;;6176477;28;81592;-65
2021/07/24 12:04:12;;;;;;;12.90;9.65;;;26.80;51.60;;;;;;6172795;28;80387;-65
2021/07/24 12:07:12;;;;;;;13.32;8.88;;;26.80;51.50;;;;;;6173892;28;80750;-66
2021/07/24 12:10:13;;;;;;;14.95;9.40;;;26.80;52.20;;;;;;6172037;28;83600;-66
2021/07/24 12:13:13;;;;;;;11.95;9.10;;;26.80;51.60;;;;;;6172120;28;80544;-67
2021/07/24 12:16:14;;;;;;;14.02;8.55;;;26.80;50.90;;;;;;6176425;28;80919;-67
2021/07/24 12:19:14;;;;;;;12.07;8.68;;;26.90;50.90;;;;;;6179416;28;81685;-68
2021/07/24 12:22:15;;;;;;;15.30;8.65;;;27.00;51.00;;;;;;6170840;28;81783;-67
2021/07/24 12:25:15;;;;;;;12.05;8.10;;;27.00;50.60;;;;;;6174801;28;80457;-66
2021/07/24 12:28:16;;;;;;;12.55;8.55;;;27.00;50.70;;;;;;6174845;28;80467;-66
2021/07/24 12:31:16;;;;;;;13.10;8.20;;;27.10;51.00;;;;;;6174180;28;81456;-67
2021/07/24 12:34:17;;;;;;;11.68;8.07;;;27.00;51.50;;;;;;6172616;28;80488;-67
2021/07/24 12:37:17;;;;;;;12.43;8.00;;;27.00;51.30;;;;;;6177371;28;81634;-67
2021/07/24 12:40:18;;;;;;;11.23;7.72;;;26.90;51.20;;;;;;6173385;28;80686;-66
2021/07/24 12:43:18;;;;;;;12.27;8.48;;;26.90;51.50;;;;;;6175351;28;80574;-65
2021/07/24 12:46:19;;;;;;;13.98;10.93;;;26.90;51.00;;;;;;6167527;28;80396;-67
2021/07/24 12:49:19;;;;;;;11.68;9.13;;;26.90;50.60;;;;;;6177939;28;83193;-66
2021/07/24 12:52:20;;;;;;;11.32;9.35;;;26.90;50.50;;;;;;6174174;28;83353;-66
2021/07/24 12:55:21;;;;;;;11.27;7.70;;;26.90;50.90;;;;;;6174469;28;81614;-66
2021/07/24 12:58:21;;;;;;;14.23;8.32;;;26.90;51.00;;;;;;6175062;28;80452;-66
2021/07/24 13:01:22;;;;;;;11.57;8.68;;;27.00;51.10;;;;;;6176874;28;81270;-67
2021/07/24 13:04:22;;;;;;;10.57;8.32;;;27.00;51.30;;;;;;6177481;28;80689;-67
2021/07/24 13:07:26;;;;;;;11.85;8.68;;;26.90;51.80;;;;;;6177472;28;81719;-67
2021/07/24 13:10:29;;;;;;;11.50;8.90;;;26.90;51.70;;;;;;6171064;28;81061;-67
2021/07/24 13:13:29;;;;;;;10.55;8.02;;;26.90;52.00;;;;;;6177775;28;81698;-66
2021/07/24 13:16:34;;;;;;;8.90;7.45;;;27.00;51.90;;;;;;6181760;28;81547;-65
2021/07/24 13:19:34;;;;;;;9.52;8.15;;;27.00;51.80;;;;;;6173692;28;80678;-66
2021/07/24 13:22:35;;;;;;;9.55;8.15;;;27.00;52.00;;;;;;6173747;28;81412;-66
2021/07/24 13:28:37;;;;;;;9.90;8.20;;;27.10;51.30;;;;;;6175308;28;80687;-66
2021/07/24 13:31:37;;;;;;;11.70;8.38;;;27.00;51.00;;;;;;6179556;28;80573;-66
2021/07/24 13:34:38;;;;;;;14.90;8.07;;;27.00;51.50;;;;;;6178128;28;80955;-68
2021/07/24 13:37:38;;;;;;;10.50;7.85;;;27.10;51.30;;;;;;6175066;28;80693;-64
2021/07/24 13:40:39;;;;;;;10.52;7.75;;;27.10;51.80;;;;;;6178561;28;80966;-66
2021/07/24 13:43:39;;;;;;;9.70;7.85;;;27.00;51.50;;;;;;6185054;28;80163;-66
2021/07/24 13:46:40;;;;;;;10.20;7.63;;;27.00;52.00;;;;;;6182012;28;81551;-66
2021/07/24 13:49:40;;;;;;;11.48;8.65;;;27.00;51.60;;;;;;6176100;28;81488;-66
2021/07/24 13:52:41;;;;;;;10.20;8.05;;;26.90;51.70;;;;;;6176258;28;80404;-66
2021/07/24 13:55:41;;;;;;;12.07;8.25;;;26.80;51.50;;;;;;6180276;28;81293;-66
2021/07/24 13:58:44;;;;;;;9.52;7.68;;;26.90;51.30;;;;;;6177747;28;81007;-67
2021/07/24 14:01:44;;;;;;;11.10;7.43;;;26.90;51.30;;;;;;6172563;28;81338;-66
2021/07/24 14:04:45;;;;;;;10.02;8.02;;;27.00;50.10;;;;;;6176800;28;80419;-69
2021/07/24 14:07:46;;;;;;;12.13;8.30;;;27.00;50.60;;;;;;6185292;28;80264;-67
2021/07/24 14:10:46;;;;;;;12.23;8.57;;;27.00;50.50;;;;;;6179392;28;80652;-66
2021/07/24 14:13:47;;;;;;;11.05;7.45;;;27.00;51.50;;;;;;6177633;28;80418;-68
2021/07/24 14:16:47;;;;;;;11.05;7.85;;;27.00;50.90;;;;;;6172865;28;81046;-67
2021/07/24 14:19:48;;;;;;;9.68;7.80;;;26.90;51.50;;;;;;6179473;28;80477;-66
2021/07/24 14:22:48;;;;;;;12.10;7.90;;;26.90;51.00;;;;;;6175792;28;80389;-66
2021/07/24 14:25:49;;;;;;;10.73;7.82;;;26.90;51.20;;;;;;6181749;28;80582;-66
2021/07/24 14:28:49;;;;;;;12.60;7.22;;;26.90;51.20;;;;;;6170046;28;81556;-65
2021/07/24 14:31:50;;;;;;;14.85;9.27;;;26.90;50.90;;;;;;6177729;28;80544;-65
2021/07/24 14:34:50;;;;;;;11.15;8.15;;;26.90;51.20;;;;;;6170913;28;80625;-66
2021/07/24 14:37:51;;;;;;;12.75;8.05;;;26.90;51.30;;;;;;6176485;28;80474;-65
2021/07/24 14:40:51;;;;;;;20.33;8.38;;;26.90;51.30;;;;;;6178314;28;80225;-67
2021/07/24 14:43:52;;;;;;;11.18;7.15;;;26.80;51.00;;;;;;6172370;28;80932;-67
2021/07/24 14:46:52;;;;;;;15.15;8.10;;;26.80;50.70;;;;;;6169628;28;82621;-67
2021/07/24 14:49:55;;;;;;;14.98;8.90;;;26.80;50.80;;;;;;6171959;28;83925;-66
2021/07/24 14:52:58;;;;;;;12.93;8.35;;;26.90;51.10;;;;;;6182003;28;80490;-68
2021/07/24 14:55:58;;;;;;;13.50;9.15;;;26.90;50.50;;;;;;6172188;28;80489;-68
2021/07/24 14:58:59;;;;;;;17.38;7.93;;;26.90;50.60;;;;;;6179936;28;80479;-68
2021/07/24 15:01:59;;;;;;;13.88;7.78;;;26.80;50.70;;;;;;6176764;28;81578;-66
2021/07/24 15:05:00;;;;;;;29.20;7.90;;;26.80;50.10;;;;;;6181463;28;80341;-68
2021/07/24 15:08:00;;;;;;;9.80;7.50;;;26.90;50.00;;;;;;6177732;28;81020;-66
2021/07/24 15:11:01;;;;;;;8.85;7.03;;;26.80;49.50;;;;;;6176257;28;80265;-65
2021/07/24 15:14:02;;;;;;;10.82;7.03;;;26.80;49.20;;;;;;6171890;28;80672;-65
2021/07/24 15:17:02;;;;;;;9.40;6.85;;;26.80;49.40;;;;;;6178569;28;81559;-66
2021/07/24 15:20:03;;;;;;;13.25;7.47;;;26.80;49.50;;;;;;6175035;28;80445;-65
2021/07/24 15:23:03;;;;;;;13.70;7.50;;;26.80;50.10;;;;;;6170664;28;81440;-66
2021/07/24 15:26:04;;;;;;;16.27;7.97;;;26.80;49.60;;;;;;6171552;28;81655;-65
2021/07/24 15:29:05;;;;;;;11.98;8.32;;;26.80;49.20;;;;;;6167049;28;82171;-65